Terminal Aerodrome Forecast
Issued by NWS Cleveland, OH

Home | Current Version | Previous Version | Graphics & Text | Print | Product List | Glossary On
Versions: 1 2 3 4 5 6 7 8 9 10 11 12 13 14 15 16 17 18 19 20 21 22
000
FTUS41 KCLE 252300
TAFMFD
TAF
KMFD 252325Z 2600/2624 03012KT 3/4SM -SN BR OVC015
      TEMPO 2600/2604 1/2SM SN FZFG VV008
     FM260400 03012KT 1SM -SN BR OVC015
      TEMPO 2604/2608 3/4SM -SN OVC008
     FM260800 03012KT 2SM -SN BR OVC006
     FM261400 36010KT 5SM -SN OVC008
     FM261800 34010KT 6SM -SN OVC012
      TEMPO 2618/2622 5SM -SN=

USA.gov is the U.S. government's official web portal to all federal, state and local government web resources and services.